Hovedside
METAR-TAF:

METAR-TAF

Lufthavner :

Rovaniemi, Finland

Rovaniemi lufthavn

breddegrad: 66-34N, lengdegrad: 025-50E, høyde over havet: 197 m

Gjeldene værobservasjon

Denne rapporten ble laget for 24 minutter siden, klokken 05:50 UTC
Vind 12 kt fra Vest-nordvest
Temperatur -5°C
Luftfuktighet 63%
Trykk 1009 hPa
Sikt 10 km eller mer
ingen skyer under 1500 m og ingen bygeskyer

METAR: EFRO 240550Z 30012KT CAVOK M05/M11 Q1009

Tid: 08:14 (06:14 UTC)

Varsel

Denne rapporten ble laget for 49 minutter siden, klokken 05:25 UTC
Varsel gyldig fra 24. klokken 06 UTC til 25. klokken 06 UTC
Vind 14 kt fra Nordvest
Sikt 10 km eller mer
ingen skyer under 1500 m og ingen bygeskyer
Blir
fra 24. klokken 15 UTC til 24. klokken 17 UTC
Vind 4 kt fra Vest-sørvest
Sannsynlighet 30%
fra 25. klokken 04 UTC til 25. klokken 06 UTC
Sikt: 2000 m
Brutte skyer i en høyde av 100 ft
dis

TAF: EFRO 240525Z 2406/2506 31014KT CAVOK BECMG 2415/2417 24004KT PROB30 2504/2506 2000 BR BKN001

Værobservasjoner og værvarsel for over 4000 flyplasser (METAR- og TAF-rapporter).

Tilgjengelige stasjoner er representert av de røde og gule prikkene på kartet.

Hold musepekeren over prikken for å se navnet på stasjonen.

Klikk så for å se værobservasjoner og -varsler.

For å forandre kartet kan du klikke på den grønne knappen med svart kryss for å zoome inn, på den grønne knappen med strek for å zoome ut, eller på de grønne pilene for å se tilstøtende kart.


METAR-TAF: